createdAt,value
2023-11-23T00:00:42.036Z,1.97
2023-11-23T00:01:48.296Z,1.92
2023-11-23T00:02:43.757Z,1.94
2023-11-23T00:03:42.164Z,1.87
2023-11-23T00:04:41.496Z,1.91
2023-11-23T00:05:42.071Z,1.97
2023-11-23T00:06:42.060Z,1.97
2023-11-23T00:08:06.615Z,1.95
2023-11-23T00:08:43.127Z,2.06
2023-11-23T00:09:41.460Z,1.97
2023-11-23T00:10:43.660Z,1.99
2023-11-23T00:11:41.531Z,2.04
2023-11-23T00:12:41.394Z,2.07
2023-11-23T00:13:57.094Z,1.99
2023-11-23T00:14:42.073Z,2.02
2023-11-23T00:15:41.403Z,1.95
2023-11-23T00:16:42.027Z,2.06
2023-11-23T00:17:56.734Z,2.02
2023-11-23T00:18:43.664Z,2.00
2023-11-23T00:19:41.988Z,2.14
2023-11-23T00:21:07.011Z,2.14
2023-11-23T00:21:41.262Z,2.07
2023-11-23T00:22:41.246Z,2.15
2023-11-23T00:23:41.386Z,2.13
2023-11-23T00:24:44.141Z,2.15
2023-11-23T00:25:43.557Z,2.08
2023-11-23T00:26:43.685Z,2.10
2023-11-23T00:27:41.223Z,2.08
2023-11-23T00:29:02.773Z,2.13
2023-11-23T00:29:41.216Z,2.02
2023-11-23T00:30:41.165Z,2.04
2023-11-23T00:31:42.262Z,2.04
2023-11-23T00:33:50.308Z,2.06
2023-11-23T00:34:51.041Z,2.06
2023-11-23T00:35:50.542Z,2.00
2023-11-23T00:36:50.552Z,1.94
2023-11-23T00:37:52.860Z,1.88
2023-11-23T00:38:51.565Z,2.07
2023-11-23T00:39:58.049Z,1.97
2023-11-23T00:40:51.046Z,1.99
2023-11-23T00:41:51.069Z,1.92
2023-11-23T00:42:50.159Z,1.88
2023-11-23T00:43:49.648Z,1.89
2023-11-23T00:44:49.709Z,1.92
2023-11-23T00:45:49.605Z,1.94
2023-11-23T00:46:49.662Z,1.85
2023-11-23T00:48:05.050Z,1.89
2023-11-23T00:48:50.266Z,1.87
2023-11-23T00:49:49.675Z,1.78
2023-11-23T00:50:51.040Z,1.81
2023-11-23T00:53:05.396Z,1.74
2023-11-23T00:54:05.898Z,1.71
2023-11-23T00:55:05.481Z,1.71
2023-11-23T00:56:25.715Z,1.60
2023-11-23T00:57:07.822Z,1.63
2023-11-23T00:58:06.098Z,1.66
2023-11-23T00:59:04.833Z,1.59
2023-11-23T01:00:14.293Z,1.71
2023-11-23T01:01:05.393Z,1.77
2023-11-23T01:02:04.769Z,1.73
2023-11-23T01:03:12.464Z,1.74
2023-11-23T01:04:04.735Z,1.74
2023-11-23T01:05:05.070Z,1.71
2023-11-23T01:06:05.382Z,1.74
2023-11-23T01:07:04.646Z,1.76
2023-11-23T01:08:06.922Z,1.73
2023-11-23T01:09:06.359Z,1.77
2023-11-23T01:10:04.594Z,1.76
2023-11-23T01:11:15.385Z,1.71
2023-11-23T01:12:08.414Z,1.70
2023-11-23T01:13:04.565Z,1.77
2023-11-23T01:15:05.602Z,1.76
2023-11-23T01:16:05.556Z,1.74
2023-11-23T01:17:05.567Z,1.84
2023-11-23T01:18:05.545Z,1.71
2023-11-23T01:19:28.018Z,1.74
2023-11-23T01:20:05.474Z,1.71
2023-11-23T01:21:05.484Z,1.81
2023-11-23T01:24:17.758Z,1.77
2023-11-23T01:26:56.741Z,1.56
2023-11-23T01:29:13.377Z,1.59
2023-11-23T01:30:07.985Z,1.52
2023-11-23T01:33:21.312Z,1.55
2023-11-23T01:34:22.502Z,1.49
2023-11-23T01:35:20.936Z,1.50
2023-11-23T01:39:13.559Z,1.38
2023-11-23T01:40:11.382Z,1.35
2023-11-23T01:41:20.829Z,1.24
2023-11-23T02:10:00.739Z,0.26
2023-11-23T04:53:07.876Z,-0.31
2023-11-23T04:54:14.890Z,-0.31
2023-11-23T04:55:07.243Z,-0.28
2023-11-23T04:56:13.988Z,-0.20
2023-11-23T04:57:07.241Z,-0.21
2023-11-23T04:58:09.301Z,-0.10
2023-11-23T04:59:07.956Z,-0.11
2023-11-23T05:00:13.996Z,0.01
2023-11-23T05:01:09.398Z,0.00
2023-11-23T05:02:15.828Z,0.08
2023-11-23T05:03:14.919Z,0.12
2023-11-23T05:05:57.510Z,0.22
2023-11-23T05:09:57.868Z,0.19
2023-11-23T05:12:35.951Z,0.15
2023-11-23T05:18:13.262Z,-0.02
2023-11-23T05:19:24.328Z,-0.03
2023-11-23T05:20:14.209Z,0.01
2023-11-23T05:21:12.417Z,-0.02
2023-11-23T05:22:15.330Z,0.08
2023-11-23T05:23:19.283Z,0.10
2023-11-23T05:24:12.878Z,0.31
2023-11-23T05:25:12.356Z,0.28
2023-11-23T05:26:12.804Z,0.36
2023-11-23T05:27:12.872Z,0.36
2023-11-23T05:28:13.135Z,0.47
2023-11-23T05:29:14.642Z,0.55
2023-11-23T05:30:15.685Z,0.49
2023-11-23T05:31:13.873Z,0.59
2023-11-23T05:32:18.824Z,0.50
2023-11-23T05:33:19.444Z,0.56
2023-11-23T05:34:27.659Z,0.55
2023-11-23T05:35:12.778Z,0.63
2023-11-23T05:36:14.180Z,0.66
2023-11-23T05:37:14.210Z,0.66
2023-11-23T05:38:28.310Z,0.69
2023-11-23T05:39:12.436Z,0.69
2023-11-23T05:40:13.767Z,0.73
2023-11-23T05:42:54.110Z,0.80
2023-11-23T05:43:47.571Z,0.74
2023-11-23T05:44:47.952Z,0.63
2023-11-23T05:45:39.818Z,0.68
2023-11-23T05:46:42.020Z,0.69
2023-11-23T05:49:30.567Z,0.69
2023-11-23T05:50:29.825Z,0.68
2023-11-23T05:54:50.829Z,0.68
2023-11-23T05:57:33.661Z,0.60
2023-11-23T05:58:33.508Z,0.62
2023-11-23T05:59:41.445Z,0.65
2023-11-23T06:02:40.869Z,0.60
2023-11-23T06:03:40.891Z,0.60
2023-11-23T06:04:39.227Z,0.62
2023-11-23T06:05:39.987Z,0.55
2023-11-23T06:06:39.734Z,0.65
2023-11-23T06:07:39.040Z,0.69
2023-11-23T06:08:39.558Z,0.58
2023-11-23T06:10:55.460Z,0.80
2023-11-23T06:11:55.740Z,0.74
2023-11-23T06:15:05.593Z,0.70
2023-11-23T06:16:07.524Z,0.68
2023-11-23T06:17:07.021Z,0.63
2023-11-23T06:18:13.486Z,0.63
2023-11-23T06:23:04.304Z,0.69
2023-11-23T06:24:44.631Z,0.59
2023-11-23T06:25:45.939Z,0.60
2023-11-23T06:26:44.358Z,0.60
2023-11-23T06:27:49.270Z,0.68
2023-11-23T06:31:59.524Z,0.73
2023-11-23T06:44:19.509Z,0.65
2023-11-23T06:45:19.528Z,0.62
2023-11-23T06:46:20.340Z,0.60
2023-11-23T06:47:19.565Z,0.60
2023-11-23T06:48:19.462Z,0.68
2023-11-23T06:49:19.449Z,0.80
2023-11-23T06:50:19.430Z,0.83
2023-11-23T06:51:20.306Z,0.88
2023-11-23T06:52:19.430Z,1.06
2023-11-23T06:53:19.385Z,1.12
2023-11-23T06:54:19.383Z,1.26
2023-11-23T06:55:20.280Z,1.22
2023-11-23T06:56:19.373Z,1.37
2023-11-23T06:57:19.393Z,1.44
2023-11-23T06:58:19.312Z,1.55
2023-11-23T06:59:20.271Z,1.56
2023-11-23T07:00:19.322Z,1.67
2023-11-23T07:01:19.364Z,1.66
2023-11-23T07:02:19.347Z,1.62
2023-11-23T07:03:19.343Z,1.76
2023-11-23T07:04:19.254Z,1.74
2023-11-23T07:05:19.233Z,1.81
2023-11-23T07:06:19.220Z,1.84
2023-11-23T07:07:19.253Z,1.92
2023-11-23T07:08:19.225Z,1.99
2023-11-23T07:09:19.272Z,1.89
2023-11-23T07:10:20.702Z,1.95
2023-11-23T07:11:19.241Z,2.07
2023-11-23T07:12:19.203Z,2.02
2023-11-23T07:13:19.143Z,2.10
2023-11-23T07:14:19.231Z,2.13
2023-11-23T07:15:19.801Z,2.24
2023-11-23T07:16:19.142Z,2.18
2023-11-23T07:17:19.106Z,2.31
2023-11-23T07:18:19.654Z,2.31
2023-11-23T07:19:19.102Z,2.29
2023-11-23T07:20:19.115Z,2.38
2023-11-23T07:21:19.099Z,2.49
2023-11-23T07:22:19.062Z,2.53
2023-11-23T07:23:19.113Z,2.50
2023-11-23T07:24:19.078Z,2.57
2023-11-23T07:25:19.011Z,2.62
2023-11-23T07:26:19.036Z,2.61
2023-11-23T07:27:19.100Z,2.74
2023-11-23T07:28:18.981Z,2.75
2023-11-23T07:29:18.998Z,2.71
2023-11-23T07:30:18.991Z,2.82
2023-11-23T07:31:19.016Z,2.86
2023-11-23T07:32:18.982Z,2.89
2023-11-23T07:33:19.084Z,2.83
2023-11-23T07:34:18.915Z,3.05
2023-11-23T07:35:18.923Z,3.05
2023-11-23T07:36:18.913Z,3.07
2023-11-23T07:37:18.881Z,3.07
2023-11-23T07:38:19.871Z,3.21
2023-11-23T07:39:18.904Z,3.22
2023-11-23T07:40:18.865Z,3.32
2023-11-23T07:41:18.839Z,3.32
2023-11-23T07:42:20.599Z,3.34
2023-11-23T07:43:18.817Z,3.42
2023-11-23T07:44:18.882Z,3.47
2023-11-23T07:45:18.865Z,3.53
2023-11-23T07:46:18.785Z,3.51
2023-11-23T07:47:18.763Z,3.63
2023-11-23T07:48:18.806Z,3.68
2023-11-23T07:49:18.757Z,3.70
2023-11-23T07:50:18.758Z,3.73
2023-11-23T07:51:18.809Z,3.81
2023-11-23T07:52:18.707Z,3.83
2023-11-23T07:53:21.678Z,3.86
2023-11-23T07:54:18.708Z,3.92
2023-11-23T07:55:18.735Z,3.98
2023-11-23T07:56:18.727Z,3.98
2023-11-23T07:57:18.737Z,4.04
2023-11-23T07:58:18.681Z,4.01
2023-11-23T07:59:18.632Z,3.96
2023-11-23T08:00:18.684Z,4.02
2023-11-23T08:01:18.608Z,4.10
2023-11-23T08:02:19.033Z,3.99
2023-11-23T08:03:19.087Z,4.05
2023-11-23T08:04:18.645Z,3.98
2023-11-23T08:05:18.570Z,4.01
2023-11-23T08:06:20.611Z,4.01
2023-11-23T08:07:18.567Z,4.02
2023-11-23T08:08:18.549Z,4.04
2023-11-23T08:09:18.552Z,4.04
2023-11-23T08:10:18.540Z,4.04
2023-11-23T08:11:18.559Z,4.02
2023-11-23T08:12:18.489Z,4.01
2023-11-23T08:13:18.554Z,4.01
2023-11-23T08:14:18.675Z,4.13
2023-11-23T08:15:18.482Z,4.05
2023-11-23T08:16:18.629Z,4.12
2023-11-23T08:17:18.448Z,4.14
2023-11-23T08:18:19.404Z,4.22
2023-11-23T08:19:18.610Z,4.19
2023-11-23T08:20:18.543Z,4.17
2023-11-23T08:21:18.433Z,4.30
2023-11-23T08:22:18.374Z,4.22
2023-11-23T08:23:18.436Z,4.19
2023-11-23T08:24:18.810Z,4.31
2023-11-23T08:25:18.373Z,4.17
2023-11-23T08:26:18.661Z,4.28
2023-11-23T08:27:18.417Z,4.24
2023-11-23T08:28:18.434Z,4.24
2023-11-23T08:29:18.328Z,4.34
2023-11-23T08:30:18.329Z,4.28
2023-11-23T08:31:18.293Z,4.17
2023-11-23T08:32:18.499Z,4.17
2023-11-23T08:33:18.459Z,4.23
2023-11-23T08:34:18.243Z,4.13
2023-11-23T08:35:18.258Z,4.19
2023-11-23T08:36:18.260Z,4.14
2023-11-23T08:37:18.231Z,4.14
2023-11-23T08:38:18.348Z,4.14
2023-11-23T08:39:18.255Z,4.14
2023-11-23T08:40:18.197Z,4.05
2023-11-23T08:41:18.302Z,4.12
2023-11-23T08:42:18.263Z,4.01
2023-11-23T08:43:18.177Z,4.02
2023-11-23T08:44:18.300Z,4.04
2023-11-23T08:45:18.178Z,4.05
2023-11-23T08:46:18.163Z,4.01
2023-11-23T08:47:18.102Z,4.05
2023-11-23T08:48:18.143Z,3.98
2023-11-23T08:49:18.061Z,3.91
2023-11-23T08:50:18.078Z,3.94
2023-11-23T08:51:18.103Z,3.92
2023-11-23T08:52:18.179Z,3.88
2023-11-23T08:53:18.073Z,3.87
2023-11-23T08:54:18.043Z,3.83
2023-11-23T08:55:18.139Z,3.77
2023-11-23T08:56:18.010Z,3.76
2023-11-23T08:57:18.065Z,3.87
2023-11-23T08:58:17.971Z,3.88
2023-11-23T08:59:17.970Z,3.73
2023-11-23T09:00:17.974Z,3.80
2023-11-23T09:01:17.960Z,3.70
2023-11-23T09:02:20.849Z,3.69
2023-11-23T09:03:17.980Z,3.68
2023-11-23T09:04:18.065Z,3.70
2023-11-23T09:05:17.978Z,3.68
2023-11-23T09:06:17.974Z,3.73
2023-11-23T09:07:18.121Z,3.76
2023-11-23T09:08:18.287Z,3.70
2023-11-23T09:09:19.722Z,3.65
2023-11-23T09:10:17.877Z,3.70
2023-11-23T09:11:17.991Z,3.73
2023-11-23T09:12:17.987Z,3.70
2023-11-23T09:13:17.905Z,3.73
2023-11-23T09:14:17.897Z,3.69
2023-11-23T09:15:17.774Z,3.62
2023-11-23T09:16:17.808Z,3.73
2023-11-23T09:17:18.235Z,3.76
2023-11-23T09:18:18.057Z,3.73
2023-11-23T09:19:17.893Z,3.74
2023-11-23T09:20:17.853Z,3.70
2023-11-23T09:21:17.721Z,3.70
2023-11-23T09:22:17.752Z,3.70
2023-11-23T09:23:17.686Z,3.73
2023-11-23T09:24:17.772Z,3.73
2023-11-23T09:25:17.673Z,3.70
2023-11-23T09:26:17.686Z,3.77
2023-11-23T09:27:17.673Z,3.74
2023-11-23T09:28:17.627Z,3.68
2023-11-23T09:29:17.607Z,3.70
2023-11-23T09:30:17.669Z,3.87
2023-11-23T09:31:18.343Z,3.91
2023-11-23T09:32:17.636Z,3.83
2023-11-23T09:33:20.302Z,3.87
2023-11-23T09:34:17.564Z,3.81
2023-11-23T09:35:17.686Z,3.86
2023-11-23T09:36:17.636Z,3.98
2023-11-23T09:37:17.545Z,4.02
2023-11-23T09:38:17.624Z,3.98
2023-11-23T09:39:17.539Z,3.98
2023-11-23T09:40:17.504Z,4.02
2023-11-23T09:41:17.536Z,4.02
2023-11-23T09:42:17.514Z,4.06
2023-11-23T09:43:17.801Z,4.08
2023-11-23T09:44:17.630Z,4.02
2023-11-23T09:45:17.696Z,4.06
2023-11-23T09:46:17.514Z,4.12
2023-11-23T09:47:17.414Z,4.08
2023-11-23T09:48:17.842Z,4.13
2023-11-23T09:49:17.382Z,4.08
2023-11-23T09:50:17.663Z,4.08
2023-11-23T09:51:17.496Z,4.06
2023-11-23T09:52:17.346Z,4.13
2023-11-23T09:53:17.513Z,4.08
2023-11-23T09:54:17.364Z,4.12
2023-11-23T09:56:43.475Z,4.05
2023-11-23T09:57:43.431Z,4.04
2023-11-23T09:58:43.495Z,4.05
2023-11-23T09:59:43.470Z,4.05
2023-11-23T10:00:43.470Z,4.10
2023-11-23T10:01:43.533Z,4.04
2023-11-23T10:02:43.577Z,4.06
2023-11-23T10:03:43.397Z,4.10
2023-11-23T10:04:43.374Z,4.10
2023-11-23T10:05:43.387Z,4.08
2023-11-23T10:06:43.318Z,4.16
2023-11-23T10:07:43.311Z,4.13
2023-11-23T10:08:43.311Z,4.10
2023-11-23T10:09:43.356Z,4.13
2023-11-23T10:10:43.276Z,4.17
2023-11-23T10:11:43.260Z,4.22
2023-11-23T10:12:43.251Z,4.17
2023-11-23T10:13:43.239Z,4.17
2023-11-23T10:14:43.274Z,4.16
2023-11-23T10:15:43.252Z,4.19
2023-11-23T10:16:43.250Z,4.14
2023-11-23T10:17:43.409Z,4.17
2023-11-23T10:18:43.284Z,4.19
2023-11-23T10:19:43.168Z,4.14
2023-11-23T10:20:43.209Z,4.22
2023-11-23T10:21:43.189Z,4.14
2023-11-23T10:22:43.176Z,4.16
2023-11-23T10:23:43.143Z,4.23
2023-11-23T10:24:43.132Z,4.12
2023-11-23T10:25:43.122Z,4.13
2023-11-23T10:26:43.118Z,4.10
2023-11-23T10:27:43.107Z,4.16
2023-11-23T10:28:43.070Z,4.17
2023-11-23T10:29:43.086Z,4.13
2023-11-23T10:30:43.198Z,4.10
2023-11-23T10:31:43.051Z,4.14
2023-11-23T10:32:43.169Z,4.16
2023-11-23T10:33:43.082Z,4.13
2023-11-23T10:34:43.139Z,4.16
2023-11-23T10:35:42.991Z,4.13
2023-11-23T10:36:43.001Z,4.14
2023-11-23T10:37:42.972Z,4.17
2023-11-23T10:38:44.675Z,4.23
2023-11-23T10:39:42.952Z,4.10
2023-11-23T10:40:42.967Z,4.19
2023-11-23T10:41:42.930Z,4.20
2023-11-23T10:42:42.915Z,4.17
2023-11-23T10:43:42.907Z,4.16
2023-11-23T10:44:42.927Z,4.16
2023-11-23T10:45:43.019Z,4.13
2023-11-23T10:46:42.916Z,4.10
2023-11-23T10:47:42.993Z,4.05
2023-11-23T10:48:42.949Z,4.13
2023-11-23T10:49:42.839Z,4.05
2023-11-23T10:50:42.874Z,3.96
2023-11-23T10:51:42.916Z,4.04
2023-11-23T10:52:42.805Z,4.04
2023-11-23T10:53:42.793Z,3.95
2023-11-23T10:54:42.787Z,3.99
2023-11-23T10:55:42.768Z,4.04
2023-11-23T10:56:42.804Z,3.99
2023-11-23T10:57:42.865Z,4.04
2023-11-23T10:58:42.737Z,3.98
2023-11-23T10:59:43.288Z,4.02
2023-11-23T11:00:42.823Z,4.01
2023-11-23T11:01:42.762Z,3.99
2023-11-23T11:02:42.751Z,3.98
2023-11-23T11:03:42.729Z,3.99
2023-11-23T11:04:42.719Z,4.04
2023-11-23T11:05:42.680Z,4.06
2023-11-23T11:06:42.829Z,3.98
2023-11-23T11:07:42.641Z,4.01
2023-11-23T11:08:42.649Z,3.96
2023-11-23T11:09:42.756Z,4.01
2023-11-23T11:10:42.617Z,3.95
2023-11-23T11:11:42.590Z,3.94
2023-11-23T11:12:42.591Z,3.99
2023-11-23T11:13:42.589Z,3.91
2023-11-23T11:14:43.308Z,3.95
2023-11-23T11:15:42.609Z,3.86
2023-11-23T11:16:42.557Z,3.92
2023-11-23T11:17:42.569Z,3.87
2023-11-23T11:18:42.621Z,3.91
2023-11-23T11:19:42.566Z,3.84
2023-11-23T11:20:42.507Z,3.86
2023-11-23T11:21:42.520Z,3.87
2023-11-23T11:22:42.475Z,3.91
2023-11-23T11:23:43.304Z,3.87
2023-11-23T11:24:42.448Z,3.91
2023-11-23T11:25:42.432Z,3.92
2023-11-23T11:26:42.442Z,3.95
2023-11-23T11:27:42.493Z,3.94
2023-11-23T11:28:42.406Z,3.99
2023-11-23T11:29:42.421Z,3.92
2023-11-23T11:30:42.613Z,4.01
2023-11-23T11:31:42.367Z,3.98
2023-11-23T11:32:42.478Z,3.99
2023-11-23T11:33:42.423Z,4.01
2023-11-23T11:34:42.369Z,4.02
2023-11-23T11:35:42.322Z,4.01
2023-11-23T11:36:42.383Z,4.04
2023-11-23T11:37:42.385Z,4.04
2023-11-23T11:38:42.306Z,4.12
2023-11-23T11:39:42.368Z,4.06
2023-11-23T11:40:42.302Z,4.10
2023-11-23T11:41:42.292Z,4.05
2023-11-23T11:42:42.270Z,4.04
2023-11-23T11:43:42.241Z,4.10
2023-11-23T11:44:42.320Z,4.13
2023-11-23T11:45:42.252Z,4.13
2023-11-23T11:46:42.224Z,4.08
2023-11-23T11:47:42.371Z,4.20
2023-11-23T11:48:42.332Z,4.22
2023-11-23T11:49:42.187Z,4.22
2023-11-23T11:50:42.206Z,4.16
2023-11-23T11:51:42.162Z,4.19
2023-11-23T11:52:42.146Z,4.20
2023-11-23T11:53:42.182Z,4.20
2023-11-23T11:54:42.389Z,4.23
2023-11-23T11:55:42.150Z,4.24
2023-11-23T11:56:42.120Z,4.23
2023-11-23T11:57:42.241Z,4.17
2023-11-23T11:58:42.066Z,4.16
2023-11-23T11:59:42.176Z,4.28
2023-11-23T12:00:42.097Z,4.26
2023-11-23T12:01:42.101Z,4.20
2023-11-23T12:02:42.385Z,4.19
2023-11-23T12:03:42.120Z,4.19
2023-11-23T12:04:42.032Z,4.20
2023-11-23T12:05:41.996Z,4.31
2023-11-23T12:06:42.016Z,4.19
2023-11-23T12:07:41.970Z,4.30
2023-11-23T12:08:42.016Z,4.35
2023-11-23T12:09:46.610Z,4.28
2023-11-23T12:10:42.979Z,4.28
2023-11-23T12:11:41.930Z,4.26
2023-11-23T12:12:41.972Z,4.28
2023-11-23T12:13:41.929Z,4.34
2023-11-23T12:14:42.013Z,4.31
2023-11-23T12:15:41.986Z,4.35
2023-11-23T12:16:41.915Z,4.31
2023-11-23T12:17:41.872Z,4.31
2023-11-23T12:18:41.913Z,4.35
2023-11-23T12:19:41.839Z,4.37
2023-11-23T12:20:41.880Z,4.31
2023-11-23T12:21:41.958Z,4.40
2023-11-23T12:22:41.827Z,4.34
2023-11-23T12:23:41.832Z,4.44
2023-11-23T12:24:41.840Z,4.37
2023-11-23T12:25:41.769Z,4.44
2023-11-23T12:26:41.984Z,4.41
2023-11-23T12:27:41.801Z,4.41
2023-11-23T12:28:41.757Z,4.37
2023-11-23T12:29:41.775Z,4.35
2023-11-23T12:30:41.917Z,4.42
2023-11-23T12:31:41.703Z,4.42
2023-11-23T12:32:41.777Z,4.32
2023-11-23T12:33:42.377Z,4.40
2023-11-23T12:34:41.671Z,4.37
2023-11-23T12:35:41.668Z,4.42
2023-11-23T12:36:41.704Z,4.34
2023-11-23T12:37:41.671Z,4.35
2023-11-23T12:38:41.696Z,4.44
2023-11-23T12:39:41.664Z,4.34
2023-11-23T12:40:41.954Z,4.30
2023-11-23T12:41:46.707Z,4.35
2023-11-23T12:42:42.606Z,4.35
2023-11-23T12:43:41.741Z,4.31
2023-11-23T12:44:41.597Z,4.23
2023-11-23T12:45:41.797Z,4.31
2023-11-23T12:46:41.610Z,4.30
2023-11-23T12:47:41.609Z,4.23
2023-11-23T12:48:41.600Z,4.24
2023-11-23T12:49:41.637Z,4.28
2023-11-23T12:50:41.735Z,4.34
2023-11-23T12:51:41.503Z,4.30
2023-11-23T12:52:41.704Z,4.32
2023-11-23T12:53:41.510Z,4.32
2023-11-23T12:54:41.665Z,4.34
2023-11-23T12:55:41.475Z,4.32
2023-11-23T12:56:41.477Z,4.34
2023-11-23T12:57:41.725Z,4.23
2023-11-23T12:58:41.855Z,4.24
2023-11-23T12:59:41.502Z,4.26
2023-11-23T13:00:41.497Z,4.24
2023-11-23T13:01:41.498Z,4.17
2023-11-23T13:02:41.721Z,4.14
2023-11-23T13:03:41.629Z,4.13
2023-11-23T13:04:41.418Z,4.28
2023-11-23T13:05:41.403Z,4.34
2023-11-23T13:06:42.466Z,4.35
2023-11-23T13:07:41.496Z,4.49
2023-11-23T13:08:41.314Z,4.52
2023-11-23T13:09:41.464Z,4.55
2023-11-23T13:10:41.322Z,4.59
2023-11-23T13:11:41.500Z,4.70
2023-11-23T13:12:41.454Z,4.71
2023-11-23T13:13:41.429Z,4.71
2023-11-23T13:14:41.432Z,4.74
2023-11-23T13:15:41.344Z,4.77
2023-11-23T13:16:41.232Z,4.73
2023-11-23T13:17:41.270Z,4.74
2023-11-23T13:18:54.741Z,4.77
2023-11-23T13:19:43.835Z,4.84
2023-11-23T13:20:42.744Z,4.77
2023-11-23T13:21:41.181Z,4.78
2023-11-23T13:22:41.135Z,4.70
2023-11-23T13:23:41.139Z,4.67
2023-11-23T13:24:41.229Z,4.68
2023-11-23T13:25:41.156Z,4.70
2023-11-23T13:26:41.266Z,4.56
2023-11-23T13:27:41.208Z,4.50
2023-11-23T13:28:41.107Z,4.49
2023-11-23T13:29:41.124Z,4.41
2023-11-23T13:30:41.102Z,4.34
2023-11-23T13:31:41.074Z,4.31
2023-11-23T13:32:43.377Z,4.37
2023-11-23T13:33:41.192Z,4.34
2023-11-23T13:34:41.067Z,4.24
2023-11-23T13:35:41.153Z,4.32
2023-11-23T13:36:41.024Z,4.24
2023-11-23T13:37:41.177Z,4.24
2023-11-23T13:38:40.957Z,4.20
2023-11-23T13:39:41.047Z,4.19
2023-11-23T13:40:41.184Z,4.26
2023-11-23T13:41:41.123Z,4.19
2023-11-23T13:42:41.022Z,4.17
2023-11-23T13:43:41.183Z,4.20
2023-11-23T13:44:40.943Z,4.22
2023-11-23T13:45:41.520Z,4.16
2023-11-23T13:46:40.979Z,4.20
2023-11-23T13:47:40.891Z,4.06
2023-11-23T13:48:41.131Z,4.10
2023-11-23T13:49:41.079Z,4.17
2023-11-23T13:50:40.881Z,4.01
2023-11-23T13:51:40.843Z,4.02
2023-11-23T13:52:40.798Z,3.99
2023-11-23T13:53:41.011Z,3.98
2023-11-23T13:54:40.990Z,4.05
2023-11-23T13:55:41.003Z,3.99
2023-11-23T13:56:43.410Z,4.06
2023-11-23T13:57:40.755Z,3.87
2023-11-23T13:58:40.790Z,3.94
2023-11-23T13:59:40.744Z,3.92
2023-11-23T14:03:16.814Z,3.74
2023-11-23T14:04:16.602Z,3.66
2023-11-23T14:05:16.603Z,3.70
2023-11-23T14:06:16.543Z,3.73
2023-11-23T14:07:16.829Z,3.63
2023-11-23T14:08:16.795Z,3.70
2023-11-23T14:09:16.678Z,3.62
2023-11-23T14:10:16.567Z,3.56
2023-11-23T14:11:16.666Z,3.65
2023-11-23T14:12:16.523Z,3.68
2023-11-23T14:13:16.583Z,3.68
2023-11-23T14:14:16.725Z,3.66
2023-11-23T14:15:17.467Z,3.58
2023-11-23T14:16:16.456Z,3.65
2023-11-23T14:17:16.428Z,3.55
2023-11-23T14:18:16.597Z,3.53
2023-11-23T14:19:16.393Z,3.59
2023-11-23T14:20:16.520Z,3.51
2023-11-23T14:21:16.640Z,3.55
2023-11-23T14:22:16.353Z,3.58
2023-11-23T14:23:16.352Z,3.56
2023-11-23T14:24:16.509Z,3.60
2023-11-23T14:25:16.334Z,3.59
2023-11-23T14:26:16.325Z,3.58
2023-11-23T14:27:16.680Z,3.56
2023-11-23T14:28:16.696Z,3.56
2023-11-23T14:29:16.350Z,3.56
2023-11-23T14:30:16.794Z,3.65
2023-11-23T14:31:16.353Z,3.56
2023-11-23T14:32:16.275Z,3.62
2023-11-23T14:33:16.462Z,3.62
2023-11-23T14:34:17.257Z,3.56
2023-11-23T14:35:16.379Z,3.47
2023-11-23T14:36:16.407Z,3.50
2023-11-23T14:37:16.319Z,3.59
2023-11-23T14:38:16.203Z,3.53
2023-11-23T14:39:16.508Z,3.53
2023-11-23T14:40:16.475Z,3.55
2023-11-23T14:41:16.138Z,3.65
2023-11-23T14:42:16.397Z,3.60
2023-11-23T14:43:16.194Z,3.47
2023-11-23T14:44:16.351Z,3.60
2023-11-23T14:45:16.326Z,3.58
2023-11-23T14:46:16.181Z,3.60
2023-11-23T14:47:16.148Z,3.66
2023-11-23T14:48:16.173Z,3.63
2023-11-23T14:49:16.382Z,3.65
2023-11-23T14:50:17.054Z,3.62
2023-11-23T14:51:16.135Z,3.66
2023-11-23T14:52:16.015Z,3.70
2023-11-23T14:53:16.134Z,3.70
2023-11-23T14:55:53.256Z,3.68
2023-11-23T14:56:53.190Z,3.63
2023-11-23T14:57:53.213Z,3.68
2023-11-23T14:58:53.056Z,3.65
2023-11-23T14:59:53.023Z,3.62
2023-11-23T15:00:53.166Z,3.68
2023-11-23T15:01:53.425Z,3.63
2023-11-23T15:02:53.063Z,3.69
2023-11-23T15:03:53.595Z,3.69
2023-11-23T15:04:52.988Z,3.62
2023-11-23T15:05:52.999Z,3.68
2023-11-23T15:06:52.954Z,3.74
2023-11-23T15:07:52.995Z,3.70
2023-11-23T15:08:53.034Z,3.73
2023-11-23T15:09:53.191Z,3.69
2023-11-23T15:11:00.711Z,3.70
2023-11-23T15:11:52.917Z,3.69
2023-11-23T15:13:02.627Z,3.70
2023-11-23T15:13:52.861Z,3.63
2023-11-23T15:14:52.921Z,3.76
2023-11-23T15:15:52.992Z,3.74
2023-11-23T15:16:53.120Z,3.70
2023-11-23T15:17:52.902Z,3.74
2023-11-23T15:18:53.012Z,3.76
2023-11-23T15:19:52.802Z,3.73
2023-11-23T15:20:52.974Z,3.70
2023-11-23T15:22:00.542Z,3.70
2023-11-23T15:22:52.847Z,3.70
2023-11-23T15:23:52.822Z,3.74
2023-11-23T15:25:02.265Z,3.68
2023-11-23T15:25:54.124Z,3.70
2023-11-23T15:26:52.790Z,3.73
2023-11-23T15:27:52.763Z,3.83
2023-11-23T15:28:52.867Z,3.84
2023-11-23T15:29:52.874Z,3.88
2023-11-23T15:30:52.789Z,3.92
2023-11-23T15:31:52.705Z,3.94
2023-11-23T15:32:52.877Z,3.94
2023-11-23T15:34:00.299Z,3.86
2023-11-23T15:34:52.757Z,3.96
2023-11-23T15:35:52.709Z,3.98
2023-11-23T15:36:52.861Z,3.96
2023-11-23T15:37:52.619Z,3.94
2023-11-23T15:38:52.582Z,3.95
2023-11-23T15:39:52.607Z,3.88
2023-11-23T15:40:52.682Z,3.98
2023-11-23T15:41:52.592Z,4.01
2023-11-23T15:42:52.671Z,4.01
2023-11-23T15:43:52.650Z,4.02
2023-11-23T15:44:52.871Z,3.95
2023-11-23T15:45:52.705Z,4.04
2023-11-23T15:46:52.738Z,3.99
2023-11-23T15:47:52.550Z,4.04
2023-11-23T15:48:52.541Z,4.14
2023-11-23T15:49:52.523Z,4.12
2023-11-23T15:50:52.598Z,4.02
2023-11-23T15:51:52.516Z,4.12
2023-11-23T15:52:52.555Z,4.01
2023-11-23T15:53:52.556Z,4.10
2023-11-23T15:54:52.439Z,4.14
2023-11-23T15:55:52.592Z,4.14
2023-11-23T15:56:52.428Z,4.14
2023-11-23T15:57:52.435Z,4.22
2023-11-23T15:58:52.463Z,4.13
2023-11-23T15:59:52.979Z,4.20
2023-11-23T16:00:52.395Z,4.22
2023-11-23T16:01:52.487Z,4.19
2023-11-23T16:02:53.438Z,4.17
2023-11-23T16:03:52.833Z,4.20
2023-11-23T16:04:52.323Z,4.17
2023-11-23T16:05:52.482Z,4.20
2023-11-23T16:06:52.287Z,4.17
2023-11-23T16:10:07.894Z,4.16
2023-11-23T16:11:07.504Z,4.08
2023-11-23T16:12:07.661Z,4.10
2023-11-23T16:13:07.578Z,4.08
2023-11-23T16:14:07.865Z,4.12
2023-11-23T16:15:07.477Z,4.14
2023-11-23T16:16:07.752Z,4.22
2023-11-23T16:17:07.481Z,4.26
2023-11-23T16:18:07.490Z,4.17
2023-11-23T16:19:07.585Z,4.24
2023-11-23T16:20:19.445Z,4.26
2023-11-23T16:21:07.456Z,4.34
2023-11-23T16:22:07.491Z,4.38
2023-11-23T16:23:07.362Z,4.34
2023-11-23T16:24:07.413Z,4.38
2023-11-23T16:25:08.334Z,4.37
2023-11-23T16:26:07.431Z,4.37
2023-11-23T16:27:07.603Z,4.32
2023-11-23T16:28:07.609Z,4.42
2023-11-23T16:29:07.277Z,4.45
2023-11-23T16:30:07.502Z,4.48
2023-11-23T16:31:07.393Z,4.45
2023-11-23T16:32:07.363Z,4.45
2023-11-23T16:33:07.333Z,4.52
2023-11-23T16:34:07.315Z,4.59
2023-11-23T16:35:07.351Z,4.58
2023-11-23T16:36:07.250Z,4.59
2023-11-23T16:37:08.303Z,4.58
2023-11-23T16:38:07.217Z,4.62
2023-11-23T16:39:07.206Z,4.59
2023-11-23T16:40:07.250Z,4.59
2023-11-23T16:41:07.143Z,4.62
2023-11-23T16:42:07.197Z,4.62
2023-11-23T16:43:07.292Z,4.68
2023-11-23T16:44:14.896Z,4.66
2023-11-23T16:45:07.157Z,4.70
2023-11-23T16:46:07.159Z,4.71
2023-11-23T16:47:07.108Z,4.70
2023-11-23T16:48:07.534Z,4.70
2023-11-23T16:49:07.368Z,4.68
2023-11-23T16:50:07.150Z,4.67
2023-11-23T16:51:07.111Z,4.71
2023-11-23T16:52:07.035Z,4.75
2023-11-23T16:53:07.036Z,4.80
2023-11-23T16:54:07.152Z,4.80
2023-11-23T16:55:06.985Z,4.74
2023-11-23T16:56:06.975Z,4.80
2023-11-23T16:57:06.970Z,4.74
2023-11-23T16:58:06.994Z,4.78
2023-11-23T16:59:08.543Z,4.84
2023-11-23T17:00:07.003Z,4.84
2023-11-23T17:01:06.929Z,4.86
2023-11-23T17:02:07.034Z,4.86
2023-11-23T17:03:07.208Z,4.84
2023-11-23T17:04:07.008Z,4.92
2023-11-23T17:05:06.876Z,4.92
2023-11-23T17:06:06.906Z,4.89
2023-11-23T17:07:06.852Z,4.82
2023-11-23T17:08:06.869Z,4.87
2023-11-23T17:09:06.877Z,4.92
2023-11-23T17:10:06.928Z,4.86
2023-11-23T17:11:06.806Z,4.96
2023-11-23T17:12:06.853Z,4.93
2023-11-23T17:13:06.791Z,4.99
2023-11-23T17:14:09.410Z,4.97
2023-11-23T17:15:06.795Z,5.08
2023-11-23T17:16:06.899Z,5.00
2023-11-23T17:17:06.750Z,4.96
2023-11-23T17:18:06.834Z,4.92
2023-11-23T17:19:06.735Z,5.00
2023-11-23T17:20:06.715Z,5.10
2023-11-23T17:21:06.788Z,5.04
2023-11-23T17:22:06.717Z,5.07
2023-11-23T17:23:06.703Z,5.04
2023-11-23T17:24:06.785Z,5.10
2023-11-23T17:25:06.693Z,5.07
2023-11-23T17:26:06.645Z,5.02
2023-11-23T17:27:06.644Z,5.10
2023-11-23T17:28:06.674Z,5.14
2023-11-23T17:29:06.608Z,5.02
2023-11-23T17:30:06.652Z,5.08
2023-11-23T17:31:06.614Z,5.07
2023-11-23T17:32:06.648Z,5.21
2023-11-23T17:33:06.680Z,5.15
2023-11-23T17:34:06.683Z,5.08